Time;durP1;ratioP1;P1;durP2;ratioP2;P2;SDS_P1;SDS_P2;PMS_P1;PMS_P2;Temp;Humidity;BMP_temperature;BMP_pressure;BME280_temperature;BME280_humidity;BME280_pressure;Samples;Min_cycle;Max_cycle;Signal;HPM_P1;HPM_P2
2022/04/09 00:01:04;;;;;;;12.50;2.50;;;4.00;99.90;;;;;;5031212;28;20092;-83
2022/04/09 00:03:29;;;;;;;8.55;2.30;;;5.20;99.90;;;;;;5030833;28;20149;-83
2022/04/09 00:05:55;;;;;;;12.18;2.50;;;4.10;99.90;;;;;;5030599;28;20485;-83
2022/04/09 00:08:21;;;;;;;9.52;2.30;;;4.30;99.90;;;;;;5030800;28;20046;-83
2022/04/09 00:10:46;;;;;;;11.50;2.33;;;4.30;99.90;;;;;;5030933;28;20420;-83
2022/04/09 00:13:12;;;;;;;8.48;2.53;;;4.30;99.90;;;;;;5010041;28;20476;-84
2022/04/09 00:15:38;;;;;;;7.47;2.00;;;4.40;99.90;;;;;;5026515;28;20406;-83
2022/04/09 00:18:03;;;;;;;9.60;2.45;;;5.50;99.90;;;;;;5031085;28;20184;-83
2022/04/09 00:20:29;;;;;;;12.02;2.10;;;5.10;99.90;;;;;;5032616;28;20056;-83
2022/04/09 00:22:55;;;;;;;8.88;2.10;;;4.40;99.90;;;;;;5016782;28;20061;-83
2022/04/09 00:25:23;;;;;;;8.27;2.13;;;5.80;99.90;;;;;;5034248;28;20052;-83
2022/04/09 00:27:50;;;;;;;7.22;2.10;;;5.50;99.90;;;;;;5035565;28;20053;-83
2022/04/09 00:30:15;;;;;;;12.48;2.50;;;4.30;99.90;;;;;;5018287;28;20072;-83
2022/04/09 00:32:41;;;;;;;10.98;2.45;;;4.20;99.90;;;;;;5035279;28;20045;-83
2022/04/09 00:35:07;;;;;;;7.20;2.40;;;4.50;99.90;;;;;;5011989;28;20057;-84
2022/04/09 00:37:43;;;;;;;9.77;2.90;;;4.00;99.90;;;;;;5029668;28;20049;-82
2022/04/09 00:40:10;;;;;;;8.63;2.80;;;4.00;99.90;;;;;;5044745;28;20050;-83
2022/04/09 00:42:35;;;;;;;14.45;2.67;;;3.90;99.90;;;;;;5045402;28;20046;-83
2022/04/09 00:45:01;;;;;;;15.35;2.83;;;4.00;99.90;;;;;;5026023;28;20053;-82
2022/04/09 00:47:27;;;;;;;8.45;2.33;;;3.90;99.90;;;;;;5021970;28;20049;-83
2022/04/09 00:49:52;;;;;;;12.25;3.08;;;3.90;99.90;;;;;;5034777;28;20052;-83
2022/04/09 00:52:18;;;;;;;15.30;3.22;;;3.90;99.90;;;;;;5031469;28;20046;-82
2022/04/09 00:54:47;;;;;;;10.77;2.88;;;3.90;99.90;;;;;;5032191;28;20049;-83
2022/04/09 00:57:12;;;;;;;11.38;2.80;;;3.90;99.90;;;;;;5015787;28;20133;-83
2022/04/09 00:59:41;;;;;;;10.27;2.67;;;4.10;99.90;;;;;;5032416;28;20619;-83
2022/04/09 01:02:07;;;;;;;15.15;2.72;;;4.00;99.90;;;;;;5016479;28;20061;-83
2022/04/09 01:04:32;;;;;;;9.57;3.00;;;3.90;99.90;;;;;;5019342;28;20057;-83
2022/04/09 01:07:02;;;;;;;10.05;3.33;;;4.20;99.90;;;;;;5043443;28;20073;-83
2022/04/09 01:09:27;;;;;;;7.38;2.53;;;4.10;99.90;;;;;;5029063;28;20049;-81
2022/04/09 01:11:54;;;;;;;8.05;2.28;;;4.20;99.90;;;;;;5049575;28;20385;-82
2022/04/09 01:14:19;;;;;;;10.95;2.60;;;5.50;99.90;;;;;;5046437;28;20062;-82
2022/04/09 01:16:45;;;;;;;9.02;2.30;;;4.20;99.90;;;;;;5027925;28;20110;-82
2022/04/09 01:19:11;;;;;;;9.77;2.22;;;4.20;99.90;;;;;;5027530;28;20132;-82
2022/04/09 01:21:37;;;;;;;10.60;3.03;;;4.90;99.90;;;;;;5029861;28;20124;-82
2022/04/09 01:24:04;;;;;;;11.48;3.47;;;4.20;99.90;;;;;;5005649;28;20472;-83
2022/04/09 01:26:30;;;;;;;6.03;1.85;;;4.10;99.90;;;;;;5035816;28;20055;-83
2022/04/09 01:28:55;;;;;;;6.13;1.92;;;4.10;99.90;;;;;;5011395;28;20511;-82
2022/04/09 01:31:21;;;;;;;8.15;1.92;;;4.10;99.90;;;;;;5013466;28;20050;-83
2022/04/09 01:33:46;;;;;;;7.43;1.90;;;5.00;99.90;;;;;;4981668;28;20116;-83
2022/04/09 01:36:14;;;;;;;10.88;2.30;;;4.80;99.90;;;;;;5014037;28;20054;-83
2022/04/09 01:38:40;;;;;;;7.40;2.03;;;5.10;99.90;;;;;;4998406;28;20397;-83
2022/04/09 01:41:05;;;;;;;7.35;1.85;;;4.00;99.90;;;;;;5013610;28;20054;-83
2022/04/09 01:43:31;;;;;;;5.32;1.90;;;3.90;99.90;;;;;;5013680;28;20042;-83
2022/04/09 01:45:57;;;;;;;6.72;2.13;;;3.80;99.90;;;;;;5013089;28;20068;-83
2022/04/09 01:48:22;;;;;;;5.03;1.60;;;5.20;99.90;;;;;;4996808;28;20049;-83
2022/04/09 01:50:49;;;;;;;7.07;1.90;;;3.80;99.90;;;;;;5013089;28;20056;-83
2022/04/09 01:53:15;;;;;;;12.50;2.00;;;3.70;99.90;;;;;;5013473;28;20045;-83
2022/04/09 01:55:41;;;;;;;10.23;2.22;;;3.70;99.90;;;;;;5013695;28;20042;-83
2022/04/09 01:58:06;;;;;;;6.38;1.88;;;4.20;99.90;;;;;;5012798;28;20406;-83
2022/04/09 02:00:32;;;;;;;6.63;1.67;;;3.70;99.90;;;;;;4998529;28;20088;-84
2022/04/09 02:02:58;;;;;;;6.20;1.90;;;3.60;99.90;;;;;;5018853;28;20042;-84
2022/04/09 02:05:25;;;;;;;5.57;1.75;;;3.60;99.90;;;;;;5030916;28;20102;-83
2022/04/09 02:07:51;;;;;;;10.32;2.28;;;3.20;99.90;;;;;;5026903;28;20091;-82
2022/04/09 02:10:17;;;;;;;7.28;2.30;;;3.50;99.90;;;;;;4980943;28;20112;-83
2022/04/09 02:12:43;;;;;;;8.82;2.20;;;4.70;99.90;;;;;;4998316;28;20094;-83
2022/04/09 02:15:12;;;;;;;8.52;2.05;;;4.50;99.90;;;;;;5009751;28;20050;-83
2022/04/09 02:17:38;;;;;;;8.00;2.15;;;3.40;99.90;;;;;;4984726;28;20397;-83
2022/04/09 02:20:08;;;;;;;8.85;2.30;;;3.30;99.90;;;;;;4981441;28;20049;-82
2022/04/09 02:22:43;;;;;;;10.60;2.40;;;3.30;99.90;;;;;;5000716;28;20049;-83
2022/04/09 02:25:19;;;;;;;7.95;2.17;;;3.30;99.90;;;;;;5013248;28;20509;-84
2022/04/09 02:27:45;;;;;;;8.63;2.42;;;3.20;99.90;;;;;;4998776;28;20141;-83
2022/04/09 02:30:11;;;;;;;9.40;3.95;;;3.30;99.90;;;;;;4979919;28;20386;-83
2022/04/09 02:32:48;;;;;;;7.63;2.28;;;3.30;99.90;;;;;;5012605;28;20058;-83
2022/04/09 02:35:14;;;;;;;13.98;2.83;;;3.30;99.90;;;;;;4996747;28;20111;-83
2022/04/09 02:37:40;;;;;;;12.32;2.60;;;3.40;99.90;;;;;;5012763;28;20057;-83
2022/04/09 02:40:06;;;;;;;8.45;2.47;;;3.60;99.90;;;;;;4996428;28;20478;-83
2022/04/09 02:42:34;;;;;;;10.35;2.63;;;3.70;99.90;;;;;;4996036;28;20096;-83
2022/04/09 02:45:00;;;;;;;7.55;2.20;;;4.40;99.90;;;;;;4996305;28;20089;-83
2022/04/09 02:47:26;;;;;;;10.70;2.55;;;3.70;99.90;;;;;;4979662;28;20096;-83
2022/04/09 02:49:51;;;;;;;9.75;2.35;;;3.60;99.90;;;;;;5012354;28;20058;-83
2022/04/09 02:52:17;;;;;;;10.73;2.47;;;3.50;99.90;;;;;;4995722;28;20149;-83
2022/04/09 02:54:42;;;;;;;10.68;2.10;;;3.50;99.90;;;;;;5012451;28;20438;-83
2022/04/09 02:57:08;;;;;;;10.25;2.72;;;4.50;99.90;;;;;;4995269;28;20529;-83
2022/04/09 02:59:34;;;;;;;11.63;2.28;;;3.40;99.90;;;;;;4994956;28;20457;-83
2022/04/09 03:01:59;;;;;;;7.70;3.00;;;3.30;99.90;;;;;;4995501;28;20061;-83
2022/04/09 03:04:25;;;;;;;6.40;2.40;;;4.60;99.90;;;;;;4995301;28;20054;-83
2022/04/09 03:06:51;;;;;;;11.27;2.42;;;3.30;99.90;;;;;;4979180;28;20053;-83
2022/04/09 03:09:16;;;;;;;7.07;2.30;;;3.30;99.90;;;;;;4995142;28;20489;-83
2022/04/09 03:11:42;;;;;;;12.57;2.75;;;3.30;99.90;;;;;;4995065;28;20073;-83
2022/04/09 03:14:08;;;;;;;9.82;2.10;;;3.30;99.90;;;;;;4994677;28;20144;-83
2022/04/09 03:16:33;;;;;;;14.80;2.35;;;3.50;99.90;;;;;;4994153;28;20042;-83
2022/04/09 03:18:59;;;;;;;12.90;2.50;;;3.30;99.90;;;;;;4994886;28;20128;-83
2022/04/09 03:21:25;;;;;;;8.75;2.65;;;3.30;99.90;;;;;;5010405;28;20050;-83
2022/04/09 03:23:50;;;;;;;12.90;2.72;;;3.90;99.90;;;;;;5011178;28;20087;-83
2022/04/09 03:26:16;;;;;;;12.15;2.90;;;3.60;99.90;;;;;;5011350;28;20108;-84
2022/04/09 03:28:42;;;;;;;8.18;2.30;;;3.50;99.90;;;;;;5010729;28;20056;-84
2022/04/09 03:31:08;;;;;;;13.13;2.58;;;3.30;99.90;;;;;;5010791;28;20042;-83
2022/04/09 03:33:34;;;;;;;9.68;2.55;;;3.20;99.90;;;;;;5010185;28;20490;-83
2022/04/09 03:36:00;;;;;;;12.85;2.88;;;4.30;99.90;;;;;;4993921;28;20054;-84
2022/04/09 03:38:25;;;;;;;9.20;2.53;;;3.40;99.90;;;;;;4977470;28;20502;-83
2022/04/09 03:40:51;;;;;;;17.13;2.83;;;3.50;99.90;;;;;;4994063;28;20054;-83
2022/04/09 03:43:17;;;;;;;14.25;2.60;;;3.50;99.90;;;;;;4994078;28;20057;-83
2022/04/09 03:45:43;;;;;;;9.07;2.50;;;3.50;99.90;;;;;;4993484;28;20111;-83
2022/04/09 03:48:08;;;;;;;17.35;3.15;;;4.50;99.90;;;;;;4994161;28;20137;-83
2022/04/09 03:50:36;;;;;;;13.43;2.67;;;3.70;99.90;;;;;;5010559;28;20053;-83
2022/04/09 03:53:02;;;;;;;11.05;3.17;;;3.60;99.90;;;;;;4994429;28;20488;-83
2022/04/09 03:55:29;;;;;;;12.40;3.03;;;3.50;99.90;;;;;;4993711;28;20398;-83
2022/04/09 03:57:56;;;;;;;13.88;3.13;;;3.40;99.90;;;;;;5010561;28;20054;-83
2022/04/09 04:00:22;;;;;;;10.98;2.85;;;3.30;99.90;;;;;;4977666;28;20042;-83
2022/04/09 04:02:47;;;;;;;14.80;2.47;;;3.50;99.90;;;;;;4994134;28;20054;-83
2022/04/09 04:05:13;;;;;;;13.88;2.95;;;3.20;99.90;;;;;;5009937;28;20083;-83
2022/04/09 04:07:46;;;;;;;14.50;2.50;;;3.20;99.90;;;;;;4993216;28;20057;-84
2022/04/09 04:10:12;;;;;;;14.13;2.95;;;3.20;99.90;;;;;;4994681;28;20085;-84
2022/04/09 04:12:41;;;;;;;15.68;2.67;;;4.60;99.90;;;;;;5010188;28;20046;-84
2022/04/09 04:15:08;;;;;;;13.73;2.55;;;3.20;99.90;;;;;;5010586;28;20524;-84
2022/04/09 04:17:40;;;;;;;13.35;2.33;;;3.20;99.90;;;;;;4993994;28;20046;-84
2022/04/09 04:20:07;;;;;;;8.20;2.15;;;3.40;99.90;;;;;;4996109;28;20098;-84
2022/04/09 04:22:32;;;;;;;8.68;2.20;;;3.10;99.90;;;;;;5003759;28;20077;-83
2022/04/09 04:24:58;;;;;;;10.60;1.90;;;3.10;99.90;;;;;;5031293;28;20076;-84
2022/04/09 04:27:24;;;;;;;11.60;2.20;;;4.50;99.90;;;;;;5027916;28;20049;-82
2022/04/09 04:29:50;;;;;;;10.75;2.10;;;3.10;99.90;;;;;;5015563;28;20065;-83
2022/04/09 04:32:15;;;;;;;10.55;2.00;;;4.20;99.90;;;;;;5012096;28;20085;-83
2022/04/09 04:34:41;;;;;;;8.48;2.00;;;4.10;99.90;;;;;;5011196;28;20045;-84
2022/04/09 04:37:07;;;;;;;9.85;2.35;;;3.40;99.90;;;;;;5000316;28;20057;-84
2022/04/09 04:39:33;;;;;;;9.30;2.22;;;3.10;99.90;;;;;;5012118;28;20104;-84
2022/04/09 04:41:58;;;;;;;11.02;2.25;;;3.00;99.90;;;;;;4995568;28;20046;-83
2022/04/09 04:44:24;;;;;;;9.10;1.95;;;3.10;99.90;;;;;;5011432;28;20061;-83
2022/04/09 04:46:49;;;;;;;7.97;2.00;;;3.00;99.90;;;;;;4994304;28;20080;-84
2022/04/09 04:49:15;;;;;;;5.78;1.80;;;3.00;99.90;;;;;;4994462;28;20054;-84
2022/04/09 04:51:41;;;;;;;7.15;1.70;;;3.10;99.90;;;;;;4993213;28;20080;-84
2022/04/09 04:54:06;;;;;;;6.90;1.83;;;3.70;99.90;;;;;;5010632;28;20050;-84
2022/04/09 04:56:32;;;;;;;5.72;1.83;;;3.10;99.90;;;;;;5013046;28;20046;-84
2022/04/09 04:58:58;;;;;;;7.10;2.28;;;3.90;99.90;;;;;;4998152;28;20050;-84
2022/04/09 05:01:24;;;;;;;6.35;2.10;;;3.20;99.90;;;;;;5014878;28;20042;-84
2022/04/09 05:03:50;;;;;;;9.45;2.42;;;3.20;99.90;;;;;;4996668;28;20406;-83
2022/04/09 05:06:15;;;;;;;9.90;2.63;;;3.20;99.90;;;;;;5013576;28;20052;-83
2022/04/09 05:08:41;;;;;;;5.80;1.83;;;3.90;99.90;;;;;;4980775;28;20042;-83
2022/04/09 05:11:07;;;;;;;8.52;2.10;;;3.20;99.90;;;;;;5013919;28;20140;-84
2022/04/09 05:13:33;;;;;;;8.82;2.10;;;3.40;99.90;;;;;;4996552;28;20088;-83
2022/04/09 05:15:58;;;;;;;12.73;2.22;;;3.40;99.90;;;;;;5002473;28;20058;-82
2022/04/09 05:18:24;;;;;;;7.53;2.20;;;3.50;99.90;;;;;;5008410;28;20054;-83
2022/04/09 05:20:51;;;;;;;9.48;2.15;;;3.70;99.90;;;;;;4997536;28;20353;-84
2022/04/09 05:23:16;;;;;;;5.70;1.90;;;3.70;99.90;;;;;;5018018;28;20053;-83
2022/04/09 05:25:42;;;;;;;7.47;1.65;;;4.30;99.90;;;;;;5005520;28;20058;-83
2022/04/09 05:28:10;;;;;;;6.90;1.85;;;4.00;99.90;;;;;;5013411;28;20077;-83
2022/04/09 05:30:36;;;;;;;9.40;1.70;;;4.60;99.90;;;;;;4997559;28;20421;-83
2022/04/09 05:33:02;;;;;;;7.68;1.70;;;4.40;99.90;;;;;;4996940;28;20049;-83
2022/04/09 05:35:28;;;;;;;10.57;2.00;;;4.50;99.90;;;;;;4997181;28;20375;-83
2022/04/09 05:37:54;;;;;;;8.15;2.00;;;4.70;99.90;;;;;;5012771;28;20068;-83
2022/04/09 05:40:19;;;;;;;7.38;1.60;;;5.10;99.90;;;;;;4996738;28;20049;-84
2022/04/09 05:42:45;;;;;;;11.68;2.10;;;5.70;99.90;;;;;;5013632;28;20482;-83
2022/04/09 05:45:11;;;;;;;10.13;2.00;;;6.20;99.90;;;;;;4996902;28;20057;-82
2022/04/09 05:47:44;;;;;;;7.45;1.70;;;6.40;99.90;;;;;;5012515;28;20458;-83
2022/04/09 05:50:10;;;;;;;8.52;1.42;;;6.80;99.90;;;;;;4996437;28;20509;-83
2022/04/09 05:52:35;;;;;;;7.55;1.73;;;7.40;99.90;;;;;;4996048;28;20052;-83
2022/04/09 05:55:04;;;;;;;12.70;2.00;;;7.40;99.90;;;;;;5014094;28;20089;-83
2022/04/09 05:57:31;;;;;;;10.82;2.00;;;7.90;99.90;;;;;;4980264;28;20058;-83
2022/04/09 05:59:56;;;;;;;8.82;2.08;;;7.90;99.90;;;;;;4979382;28;20466;-84
2022/04/09 06:02:22;;;;;;;9.30;2.03;;;7.90;99.90;;;;;;4979982;28;20080;-83
2022/04/09 06:04:48;;;;;;;12.98;2.03;;;8.30;99.90;;;;;;5011737;28;20054;-83
2022/04/09 06:07:13;;;;;;;5.18;1.70;;;8.50;99.90;;;;;;5010258;28;20080;-82
2022/04/09 06:09:42;;;;;;;7.25;1.83;;;8.90;99.90;;;;;;5011551;28;20548;-82
2022/04/09 06:12:13;;;;;;;7.30;1.73;;;9.20;99.90;;;;;;4996891;28;20141;-83
2022/04/09 06:14:39;;;;;;;10.88;2.85;;;9.30;99.90;;;;;;5011349;28;20137;-83
2022/04/09 06:17:04;;;;;;;10.70;2.08;;;9.40;99.90;;;;;;4995444;28;20113;-84
2022/04/09 06:19:31;;;;;;;11.13;2.00;;;8.10;99.90;;;;;;5011838;28;20061;-83
2022/04/09 06:21:57;;;;;;;12.73;2.30;;;6.70;99.90;;;;;;4995308;28;20087;-82
2022/04/09 06:24:22;;;;;;;11.07;2.00;;;6.30;99.90;;;;;;4995436;28;20046;-83
2022/04/09 06:26:48;;;;;;;8.73;2.30;;;6.00;99.90;;;;;;4995507;28;20599;-82
2022/04/09 06:29:14;;;;;;;13.00;2.05;;;5.80;99.90;;;;;;4996032;28;20049;-82
2022/04/09 06:31:40;;;;;;;9.13;2.13;;;7.00;99.90;;;;;;5012109;28;20069;-81
2022/04/09 06:34:05;;;;;;;12.85;2.55;;;5.40;99.90;;;;;;5013156;28;20057;-82
2022/04/09 06:36:31;;;;;;;13.18;2.25;;;5.40;99.90;;;;;;4996135;28;20445;-82
2022/04/09 06:38:56;;;;;;;8.95;2.40;;;5.80;99.90;;;;;;5030537;28;20544;-83
2022/04/09 06:41:22;;;;;;;10.63;1.95;;;5.20;99.90;;;;;;5004927;28;20105;-83
2022/04/09 06:43:48;;;;;;;7.15;1.92;;;5.10;99.90;;;;;;5043901;28;20060;-82
2022/04/09 06:46:14;;;;;;;8.93;2.08;;;5.20;99.90;;;;;;4996123;28;20045;-82
2022/04/09 06:48:42;;;;;;;13.90;2.58;;;5.80;99.90;;;;;;5014062;28;20049;-83
2022/04/09 06:51:08;;;;;;;11.90;1.98;;;6.80;99.90;;;;;;5011612;28;20112;-82
2022/04/09 06:53:34;;;;;;;11.75;2.53;;;7.90;99.90;;;;;;5022707;28;20394;-83
2022/04/09 06:56:00;;;;;;;12.57;2.55;;;8.30;99.90;;;;;;5012570;28;20132;-82
2022/04/09 06:58:26;;;;;;;7.93;1.98;;;8.90;99.90;;;;;;5031506;28;20037;-83
2022/04/09 07:00:51;;;;;;;12.98;2.55;;;9.60;99.90;;;;;;4998184;28;20041;-83
2022/04/09 07:03:17;;;;;;;10.95;2.05;;;10.30;99.90;;;;;;5031289;28;20073;-83
2022/04/09 07:05:43;;;;;;;9.30;2.38;;;9.10;99.90;;;;;;4997884;28;20049;-82
2022/04/09 07:08:09;;;;;;;8.27;1.95;;;9.40;99.90;;;;;;5015791;28;20684;-82
2022/04/09 07:10:38;;;;;;;7.95;1.95;;;9.10;99.90;;;;;;5037611;28;20033;-82
2022/04/09 07:13:07;;;;;;;11.60;2.17;;;9.30;99.90;;;;;;5001803;28;20057;-83
2022/04/09 07:15:34;;;;;;;7.32;1.90;;;9.30;99.90;;;;;;5024401;28;20049;-82
2022/04/09 07:17:59;;;;;;;8.63;1.73;;;9.80;99.90;;;;;;5026159;28;20641;-82
2022/04/09 07:20:25;;;;;;;8.23;1.98;;;9.70;99.90;;;;;;4993497;28;20045;-81
2022/04/09 07:22:51;;;;;;;9.30;1.83;;;9.90;99.90;;;;;;5010170;28;20045;-82
2022/04/09 07:25:17;;;;;;;7.65;1.92;;;10.50;99.90;;;;;;5000584;28;20050;-81
2022/04/09 07:27:43;;;;;;;11.40;2.50;;;10.40;99.90;;;;;;5019381;28;20128;-82
2022/04/09 07:30:19;;;;;;;8.73;2.15;;;10.70;99.90;;;;;;4993963;28;20454;-80
2022/04/09 07:32:45;;;;;;;8.30;2.15;;;11.00;99.90;;;;;;5000641;28;20124;-81
2022/04/09 07:35:16;;;;;;;11.25;2.25;;;10.60;99.90;;;;;;5000156;28;20053;-82
2022/04/09 07:37:43;;;;;;;8.35;1.90;;;11.10;99.90;;;;;;5023642;28;20065;-83
2022/04/09 07:40:09;;;;;;;7.60;1.77;;;11.00;99.90;;;;;;5013438;28;20125;-81
2022/04/09 07:42:35;;;;;;;8.00;1.90;;;11.20;99.90;;;;;;5013837;28;20152;-83
2022/04/09 07:45:01;;;;;;;7.30;2.00;;;10.90;99.90;;;;;;4996375;28;20125;-81
2022/04/09 07:47:26;;;;;;;7.18;1.90;;;11.60;99.90;;;;;;5037121;28;20045;-82
2022/04/09 07:49:52;;;;;;;8.52;2.00;;;11.30;99.90;;;;;;5041364;28;20120;-81
2022/04/09 07:52:18;;;;;;;4.35;1.60;;;9.90;99.90;;;;;;5046819;28;20044;-82
2022/04/09 07:54:43;;;;;;;7.18;1.83;;;9.30;99.90;;;;;;5045336;28;20044;-81
2022/04/09 07:57:09;;;;;;;9.82;2.55;;;9.00;99.90;;;;;;5027800;28;20618;-82
2022/04/09 07:59:35;;;;;;;6.18;1.67;;;8.80;99.90;;;;;;5039561;28;20441;-82
2022/04/09 08:02:00;;;;;;;9.52;2.50;;;8.70;99.90;;;;;;5028101;28;20041;-82
2022/04/09 08:04:26;;;;;;;6.80;1.77;;;9.10;99.90;;;;;;5025873;28;20050;-82
2022/04/09 08:06:52;;;;;;;7.15;1.90;;;8.80;99.90;;;;;;5011117;28;20365;-82
2022/04/09 08:09:17;;;;;;;6.15;1.50;;;8.80;99.90;;;;;;5027821;28;20038;-83
2022/04/09 08:11:43;;;;;;;8.23;1.60;;;8.40;99.90;;;;;;5014271;28;20033;-83
2022/04/09 08:14:09;;;;;;;9.07;2.17;;;8.10;99.90;;;;;;5007526;28;20060;-82
2022/04/09 08:16:35;;;;;;;8.27;1.70;;;7.90;99.90;;;;;;5010552;28;20125;-82
2022/04/09 08:19:02;;;;;;;11.63;1.70;;;8.40;99.90;;;;;;4994633;28;20547;-82
2022/04/09 08:21:28;;;;;;;8.77;2.40;;;9.00;99.90;;;;;;5035324;28;20045;-82
2022/04/09 08:23:53;;;;;;;13.60;2.20;;;9.90;99.90;;;;;;5015255;28;20494;-82
2022/04/09 08:26:19;;;;;;;10.50;2.00;;;10.20;99.90;;;;;;5008227;28;20061;-82
2022/04/09 08:28:45;;;;;;;5.90;1.48;;;10.30;99.90;;;;;;4996184;28;20077;-81
2022/04/09 08:31:11;;;;;;;6.50;1.60;;;10.40;99.90;;;;;;5032533;28;20049;-82
2022/04/09 08:33:36;;;;;;;8.25;1.95;;;11.60;99.90;;;;;;5017100;28;20405;-82
2022/04/09 08:36:02;;;;;;;7.18;1.50;;;11.80;99.90;;;;;;5033385;28;20052;-81
2022/04/09 08:38:28;;;;;;;10.82;2.42;;;11.90;99.90;;;;;;5015137;28;20441;-82
2022/04/09 08:40:55;;;;;;;8.30;1.90;;;12.60;99.90;;;;;;5033632;28;20042;-82
2022/04/09 08:43:21;;;;;;;9.93;1.80;;;12.30;99.90;;;;;;5017196;28;20472;-82
2022/04/09 08:45:46;;;;;;;10.82;1.70;;;11.80;99.90;;;;;;4998853;28;20393;-82
2022/04/09 08:48:12;;;;;;;9.05;2.13;;;10.80;99.90;;;;;;5032524;28;20049;-82
2022/04/09 08:50:38;;;;;;;8.18;1.92;;;11.30;99.90;;;;;;5016052;28;20528;-83
2022/04/09 08:53:07;;;;;;;7.28;2.10;;;11.10;99.90;;;;;;5016521;28;20542;-83
2022/04/09 08:55:34;;;;;;;10.50;1.85;;;10.10;99.90;;;;;;5035474;28;20473;-82
2022/04/09 08:58:00;;;;;;;9.18;1.85;;;10.70;99.90;;;;;;5038201;28;20135;-82
2022/04/09 09:00:26;;;;;;;10.75;2.10;;;11.50;99.90;;;;;;5047303;28;20033;-82
2022/04/09 09:03:01;;;;;;;9.80;1.88;;;12.10;99.90;;;;;;5051671;28;20055;-83
2022/04/09 09:05:34;;;;;;;7.65;1.73;;;11.60;99.90;;;;;;5000954;28;20050;-81
2022/04/09 09:08:00;;;;;;;7.20;1.80;;;11.40;99.90;;;;;;4996534;28;20052;-81
2022/04/09 09:10:26;;;;;;;6.57;1.60;;;11.70;99.90;;;;;;5014805;28;20489;-81
2022/04/09 09:13:01;;;;;;;8.70;1.80;;;12.30;99.90;;;;;;5018299;28;20116;-81
2022/04/09 09:15:27;;;;;;;13.85;2.35;;;11.90;99.90;;;;;;5013325;28;20045;-81
2022/04/09 09:17:57;;;;;;;7.70;2.28;;;12.80;99.90;;;;;;4994899;28;20434;-82
2022/04/09 09:20:24;;;;;;;10.98;1.83;;;11.60;99.90;;;;;;5013724;28;20049;-81
2022/04/09 09:22:50;;;;;;;11.18;2.20;;;11.50;99.90;;;;;;5033086;28;20132;-81
2022/04/09 09:25:16;;;;;;;7.43;2.17;;;11.90;99.90;;;;;;5016073;28;20226;-82
2022/04/09 09:27:42;;;;;;;9.07;1.90;;;11.90;99.90;;;;;;5032542;28;20046;-81
2022/04/09 09:30:12;;;;;;;9.23;1.63;;;11.00;99.90;;;;;;5012474;28;20117;-82
2022/04/09 09:32:44;;;;;;;8.20;1.90;;;9.90;99.90;;;;;;5012018;28;20371;-81
2022/04/09 09:35:09;;;;;;;10.48;2.10;;;9.00;99.90;;;;;;5014615;28;20053;-81
2022/04/09 09:37:35;;;;;;;7.68;1.88;;;8.30;99.90;;;;;;5015755;28;20038;-82
2022/04/09 09:40:01;;;;;;;8.75;1.77;;;7.90;99.90;;;;;;5011582;28;20402;-82
2022/04/09 09:42:27;;;;;;;8.07;1.52;;;7.90;99.90;;;;;;5011039;28;20057;-82
2022/04/09 09:44:53;;;;;;;4.72;1.48;;;8.00;99.90;;;;;;5013044;28;20405;-82
2022/04/09 09:47:18;;;;;;;5.90;1.40;;;7.60;99.90;;;;;;4996871;28;20130;-82
2022/04/09 09:49:58;;;;;;;5.95;1.40;;;6.70;99.90;;;;;;5013201;28;20130;-83
2022/04/09 09:52:36;;;;;;;6.70;1.45;;;6.50;99.90;;;;;;4997271;28;20050;-82
2022/04/09 09:55:05;;;;;;;7.13;1.55;;;6.70;99.90;;;;;;4997628;28;20088;-83
2022/04/09 09:57:32;;;;;;;5.78;1.55;;;6.70;99.90;;;;;;4997060;28;20049;-83
2022/04/09 10:00:05;;;;;;;8.77;1.90;;;7.70;99.90;;;;;;4997706;28;20050;-83
2022/04/09 10:02:31;;;;;;;8.75;2.33;;;9.00;99.90;;;;;;4996805;28;20050;-83
2022/04/09 10:04:56;;;;;;;8.15;2.13;;;9.70;99.90;;;;;;4996612;28;20438;-83
2022/04/09 10:07:24;;;;;;;10.20;2.40;;;9.90;99.90;;;;;;4996266;28;20053;-83
2022/04/09 10:09:50;;;;;;;8.18;1.80;;;10.20;99.90;;;;;;4997252;28;20288;-83
2022/04/09 10:12:39;;;;;;;10.07;2.47;;;10.90;99.90;;;;;;4996674;28;20094;-82
2022/04/09 10:15:06;;;;;;;6.47;1.63;;;11.90;99.90;;;;;;4996827;28;20088;-82
2022/04/09 10:17:32;;;;;;;8.35;1.60;;;11.70;99.90;;;;;;4996460;28;20085;-83
2022/04/09 10:20:01;;;;;;;6.65;1.33;;;10.80;99.90;;;;;;4996444;28;20589;-83
2022/04/09 10:22:28;;;;;;;9.50;1.27;;;8.60;99.90;;;;;;4996696;28;20454;-83
2022/04/09 10:24:55;;;;;;;9.63;1.25;;;8.40;99.90;;;;;;5006498;28;20041;-83
2022/04/09 10:27:36;;;;;;;7.28;1.23;;;7.90;99.90;;;;;;5012193;28;20107;-83
2022/04/09 10:30:02;;;;;;;5.25;1.23;;;7.70;99.90;;;;;;5030589;28;20132;-82
2022/04/09 10:32:48;;;;;;;5.93;1.30;;;7.00;99.90;;;;;;5028132;28;20408;-83
2022/04/09 10:35:24;;;;;;;7.03;1.50;;;6.90;99.90;;;;;;4997519;28;20048;-82
2022/04/09 10:38:08;;;;;;;5.20;1.67;;;6.90;99.90;;;;;;5012392;28;20054;-83
2022/04/09 10:40:34;;;;;;;4.35;1.05;;;7.80;99.90;;;;;;5031671;28;20077;-82
2022/04/09 10:43:18;;;;;;;5.95;1.30;;;8.60;99.90;;;;;;5032147;28;20131;-83
2022/04/09 10:46:09;;;;;;;4.45;1.00;;;9.50;99.90;;;;;;5018531;28;20050;-83
2022/04/09 10:48:40;;;;;;;3.83;0.90;;;10.40;99.90;;;;;;5032553;28;20061;-84
2022/04/09 10:51:11;;;;;;;3.08;1.00;;;10.10;99.90;;;;;;5011934;28;20159;-83
2022/04/09 10:53:50;;;;;;;3.20;0.75;;;10.20;99.90;;;;;;4996323;28;20089;-81
2022/04/09 10:56:27;;;;;;;4.80;0.90;;;10.40;99.90;;;;;;5022882;28;20041;-80
2022/04/09 10:59:19;;;;;;;4.25;0.93;;;10.00;99.90;;;;;;5015214;28;20465;-80
2022/04/09 11:01:48;;;;;;;4.28;1.23;;;9.40;99.90;;;;;;5016843;28;20058;-81
2022/04/09 11:07:21;;;;;;;5.10;1.00;;;9.50;99.90;;;;;;5031497;28;20045;-82
2022/04/09 11:09:56;;;;;;;3.97;1.23;;;9.40;99.90;;;;;;5004036;28;20095;-83
2022/04/09 11:12:29;;;;;;;4.82;1.10;;;8.90;99.90;;;;;;5013164;28;20050;-83
2022/04/09 11:15:06;;;;;;;5.93;1.45;;;9.00;99.90;;;;;;5011939;28;20132;-82
2022/04/09 11:17:45;;;;;;;7.50;1.30;;;8.60;99.90;;;;;;5012791;28;20512;-81
2022/04/09 11:20:33;;;;;;;5.93;1.30;;;8.20;99.90;;;;;;4999299;28;20076;-82
2022/04/09 11:23:19;;;;;;;5.85;1.30;;;8.20;99.90;;;;;;5028848;28;20041;-83
2022/04/09 11:25:45;;;;;;;6.75;1.30;;;9.80;99.90;;;;;;5021577;28;20128;-80
2022/04/09 11:28:18;;;;;;;6.22;1.30;;;9.20;99.90;;;;;;5017203;28;20075;-82
2022/04/09 11:30:54;;;;;;;6.35;1.50;;;9.30;99.90;;;;;;5014762;28;20045;-81
2022/04/09 11:33:20;;;;;;;5.68;1.52;;;9.30;99.90;;;;;;4994656;28;20057;-82
2022/04/09 11:35:46;;;;;;;6.07;1.55;;;8.90;99.90;;;;;;5033913;28;20052;-82
2022/04/09 11:38:12;;;;;;;4.82;1.33;;;8.80;99.90;;;;;;5003405;28;20095;-82
2022/04/09 11:40:46;;;;;;;4.00;1.40;;;8.70;99.90;;;;;;5038285;28;20046;-82
2022/04/09 11:43:15;;;;;;;6.30;1.42;;;8.70;99.90;;;;;;5012371;28;20060;-81
2022/04/09 11:45:41;;;;;;;4.32;1.10;;;8.50;99.90;;;;;;5018174;28;20481;-82
2022/04/09 11:48:07;;;;;;;4.82;1.10;;;8.50;99.90;;;;;;5015124;28;20057;-83
2022/04/09 11:50:39;;;;;;;5.82;1.52;;;8.80;99.90;;;;;;4996149;28;20046;-83
2022/04/09 11:53:22;;;;;;;4.65;1.35;;;8.60;99.90;;;;;;4995950;28;20046;-83
2022/04/09 11:55:48;;;;;;;9.80;1.58;;;8.70;99.90;;;;;;5014544;28;20399;-83
2022/04/09 11:58:15;;;;;;;8.15;1.60;;;8.40;99.90;;;;;;5008360;28;20537;-82
2022/04/09 12:00:47;;;;;;;8.80;1.50;;;7.80;99.90;;;;;;5025662;28;20050;-84
2022/04/09 12:03:13;;;;;;;6.68;1.33;;;7.90;99.90;;;;;;4998128;28;20508;-83
2022/04/09 12:05:46;;;;;;;6.50;1.70;;;7.50;99.90;;;;;;4997452;28;20114;-82
2022/04/09 12:08:13;;;;;;;6.72;1.98;;;7.40;99.90;;;;;;5014412;28;20048;-84
2022/04/09 12:11:02;;;;;;;6.20;1.52;;;7.80;99.90;;;;;;5012291;28;20049;-84
2022/04/09 12:13:35;;;;;;;7.88;1.52;;;8.10;99.90;;;;;;5018526;28;20501;-83
2022/04/09 12:16:15;;;;;;;6.10;1.40;;;8.60;99.90;;;;;;4979134;28;20398;-84
2022/04/09 12:18:41;;;;;;;8.85;1.50;;;8.90;99.90;;;;;;5012728;28;20096;-84
2022/04/09 12:21:23;;;;;;;4.90;1.00;;;9.00;99.90;;;;;;5013142;28;20046;-85
2022/04/09 12:24:09;;;;;;;6.05;1.50;;;9.00;99.90;;;;;;5011604;28;20050;-84
2022/04/09 12:26:39;;;;;;;5.93;1.23;;;9.00;99.90;;;;;;4979106;28;20053;-83
2022/04/09 12:29:18;;;;;;;8.25;1.40;;;8.70;99.90;;;;;;5011513;28;20046;-84
2022/04/09 12:31:51;;;;;;;10.15;1.45;;;8.30;99.90;;;;;;5028927;28;20081;-83
2022/04/09 12:34:17;;;;;;;8.18;1.67;;;7.80;99.90;;;;;;5016100;28;20057;-84
2022/04/09 12:37:04;;;;;;;7.47;1.35;;;7.70;99.90;;;;;;5011535;28;20044;-84
2022/04/09 12:39:32;;;;;;;5.90;1.55;;;7.90;99.90;;;;;;5012913;28;20057;-84
2022/04/09 12:41:58;;;;;;;8.43;3.42;;;8.20;99.90;;;;;;5024896;28;20038;-85
2022/04/09 12:44:28;;;;;;;10.00;1.77;;;8.60;99.90;;;;;;5012725;28;20041;-83
2022/04/09 12:46:54;;;;;;;5.45;1.48;;;8.70;99.90;;;;;;4992913;28;20441;-83
2022/04/09 12:49:27;;;;;;;5.30;1.20;;;9.10;99.90;;;;;;4987033;28;20942;-84
2022/04/09 12:51:53;;;;;;;7.95;1.35;;;9.60;99.90;;;;;;4997356;28;20096;-83
2022/04/09 12:54:19;;;;;;;5.57;1.00;;;9.90;99.90;;;;;;5027585;28;20037;-83
2022/04/09 12:56:45;;;;;;;3.30;1.00;;;9.70;99.90;;;;;;5013078;28;20261;-84
2022/04/09 12:59:10;;;;;;;4.30;1.02;;;9.80;99.90;;;;;;5013370;28;20199;-83